Time;durP1;ratioP1;P1;durP2;ratioP2;P2;SDS_P1;SDS_P2;PMS_P1;PMS_P2;Temp;Humidity;BMP_temperature;BMP_pressure;BME280_temperature;BME280_humidity;BME280_pressure;Samples;Min_cycle;Max_cycle;Signal;HPM_P1;HPM_P2
2022/04/15 00:01:13;;;;;;;32.40;22.13;;;;;;;;;;5020603;28;90307;-77
2022/04/15 00:03:43;;;;;;;32.05;21.95;;;;;;;;;;5021478;28;90312;-78
2022/04/15 00:06:10;;;;;;;29.08;22.05;;;;;;;;;;5003627;28;92287;-77
2022/04/15 00:08:38;;;;;;;29.20;22.08;;;;;;;;;;5021319;28;89258;-79
2022/04/15 00:11:04;;;;;;;34.85;22.45;;;;;;;;;;5024116;28;88839;-78
2022/04/15 00:13:32;;;;;;;31.77;21.00;;;;;;;;;;5020748;28;89653;-77
2022/04/15 00:15:59;;;;;;;32.38;22.50;;;;;;;;;;5021356;28;88910;-79
2022/04/15 00:18:26;;;;;;;33.40;22.48;;;;;;;;;;5021175;28;89248;-79
2022/04/15 00:20:52;;;;;;;30.38;21.90;;;;;;;;;;5021109;28;88857;-77
2022/04/15 00:23:21;;;;;;;33.13;21.45;;;;;;;;;;5020780;28;89897;-79
2022/04/15 00:25:48;;;;;;;28.10;21.42;;;;;;;;;;5020313;28;90282;-78
2022/04/15 00:28:14;;;;;;;27.35;21.13;;;;;;;;;;5002978;28;91892;-78
2022/04/15 00:30:41;;;;;;;28.73;20.98;;;;;;;;;;5020738;28;89896;-80
2022/04/15 00:33:07;;;;;;;29.23;21.05;;;;;;;;;;5023767;28;89262;-77
2022/04/15 00:35:34;;;;;;;31.25;20.77;;;;;;;;;;5020773;28;89920;-79
2022/04/15 00:38:00;;;;;;;23.70;18.85;;;;;;;;;;5002708;28;93973;-81
2022/04/15 00:40:26;;;;;;;26.42;18.70;;;;;;;;;;5003398;28;88930;-79
2022/04/15 00:42:53;;;;;;;25.10;19.02;;;;;;;;;;5020877;28;89690;-78
2022/04/15 00:45:19;;;;;;;28.50;19.45;;;;;;;;;;5020871;28;89167;-77
2022/04/15 00:47:48;;;;;;;23.45;19.00;;;;;;;;;;5020364;28;90059;-77
2022/04/15 00:50:16;;;;;;;22.73;18.65;;;;;;;;;;5020712;28;89729;-77
2022/04/15 00:52:44;;;;;;;27.75;18.98;;;;;;;;;;5023557;28;89093;-78
2022/04/15 00:55:11;;;;;;;27.90;19.02;;;;;;;;;;5002653;28;89834;-78
2022/04/15 00:57:52;;;;;;;22.98;17.60;;;;;;;;;;5003096;28;89353;-79
2022/04/15 01:00:20;;;;;;;25.02;18.48;;;;;;;;;;5002498;28;91188;-79
2022/04/15 01:02:46;;;;;;;22.20;17.20;;;;;;;;;;5002282;28;92807;-79
2022/04/15 01:05:13;;;;;;;22.98;16.17;;;;;;;;;;5002508;28;90523;-77
2022/04/15 01:07:42;;;;;;;23.95;16.05;;;;;;;;;;5019742;28;89662;-78
2022/04/15 01:10:12;;;;;;;19.83;16.45;;;;;;;;;;5002526;28;90347;-77
2022/04/15 01:12:44;;;;;;;23.27;16.90;;;;;;;;;;5019997;28;89467;-78
2022/04/15 01:15:30;;;;;;;;;;;;;;;;;;5024512;28;88932;-79
2022/04/15 01:17:58;;;;;;;25.75;16.27;;;;;;;;;;5020442;28;113946;-78
2022/04/15 01:20:28;;;;;;;24.98;17.15;;;;;;;;;;5020219;28;88860;-80
2022/04/15 01:23:11;;;;;;;27.27;17.85;;;;;;;;;;5002460;28;92476;-77
2022/04/15 01:25:38;;;;;;;27.65;18.58;;;;;;;;;;4985761;28;90617;-79
2022/04/15 01:28:04;;;;;;;20.98;17.05;;;;;;;;;;5018884;28;88931;-80
2022/04/15 01:30:32;;;;;;;23.52;17.75;;;;;;;;;;4998791;28;93099;-78
2022/04/15 01:32:58;;;;;;;23.70;17.65;;;;;;;;;;5020009;28;89287;-79
2022/04/15 01:35:33;;;;;;;25.30;18.40;;;;;;;;;;5003235;28;89083;-79
2022/04/15 01:38:02;;;;;;;27.95;17.92;;;;;;;;;;5021398;28;92341;-78
2022/04/15 01:40:28;;;;;;;23.80;17.83;;;;;;;;;;4985608;28;91258;-79
2022/04/15 01:42:55;;;;;;;21.02;17.73;;;;;;;;;;5001802;28;91451;-77
2022/04/15 01:45:21;;;;;;;27.15;18.38;;;;;;;;;;5002163;28;89368;-79
2022/04/15 01:47:49;;;;;;;23.75;17.15;;;;;;;;;;5019626;28;88894;-82
2022/04/15 01:50:16;;;;;;;25.02;17.55;;;;;;;;;;5001718;28;92660;-77
2022/04/15 01:52:42;;;;;;;28.52;17.98;;;;;;;;;;5019568;28;89169;-81
2022/04/15 01:55:08;;;;;;;34.05;19.15;;;;;;;;;;4985269;28;88938;-78
2022/04/15 01:57:35;;;;;;;28.70;17.83;;;;;;;;;;5001431;28;93011;-77
2022/04/15 02:00:01;;;;;;;26.80;18.38;;;;;;;;;;5022029;28;90278;-78
2022/04/15 02:02:37;;;;;;;25.27;17.52;;;;;;;;;;5016962;28;90426;-81
2022/04/15 02:05:04;;;;;;;27.13;18.65;;;;;;;;;;5019414;28;89793;-78
2022/04/15 02:07:30;;;;;;;26.42;19.38;;;;;;;;;;5019254;28;89240;-77
2022/04/15 02:09:57;;;;;;;25.20;18.67;;;;;;;;;;5017756;28;90357;-80
2022/04/15 02:12:23;;;;;;;27.38;18.70;;;;;;;;;;5018954;28;90221;-78
2022/04/15 02:14:50;;;;;;;26.52;17.88;;;;;;;;;;5001856;28;88964;-78
2022/04/15 02:17:17;;;;;;;24.30;17.58;;;;;;;;;;5019291;28;89874;-79
2022/04/15 02:19:43;;;;;;;28.35;17.17;;;;;;;;;;5018873;28;89550;-78
2022/04/15 02:22:10;;;;;;;22.33;15.82;;;;;;;;;;5004740;28;88833;-80
2022/04/15 02:24:37;;;;;;;32.42;15.23;;;;;;;;;;5018093;28;89688;-79
2022/04/15 02:27:04;;;;;;;21.65;14.98;;;;;;;;;;5000930;28;92021;-80
2022/04/15 02:29:32;;;;;;;24.38;15.15;;;;;;;;;;4984777;28;92818;-81
2022/04/15 02:31:58;;;;;;;21.02;14.55;;;;;;;;;;4984567;28;92169;-79
2022/04/15 02:34:25;;;;;;;18.52;14.40;;;;;;;;;;5018978;28;89063;-79
2022/04/15 02:36:51;;;;;;;29.63;15.27;;;;;;;;;;5019143;28;89679;-77
2022/04/15 02:39:18;;;;;;;19.65;13.65;;;;;;;;;;5019007;28;89294;-78
2022/04/15 02:41:44;;;;;;;20.77;13.43;;;;;;;;;;5001205;28;89131;-78
2022/04/15 02:44:11;;;;;;;20.92;13.32;;;;;;;;;;5003932;28;89128;-78
2022/04/15 02:46:37;;;;;;;20.42;12.70;;;;;;;;;;5018843;28;88783;-80
2022/04/15 02:49:05;;;;;;;18.88;13.48;;;;;;;;;;5018889;28;90023;-79
2022/04/15 02:51:33;;;;;;;18.85;12.88;;;;;;;;;;5001013;28;89656;-80
2022/04/15 02:53:59;;;;;;;17.52;12.02;;;;;;;;;;5016909;28;91627;-80
2022/04/15 02:56:26;;;;;;;14.07;11.10;;;;;;;;;;5017269;28;93162;-81
2022/04/15 02:58:52;;;;;;;15.68;11.07;;;;;;;;;;5018858;28;88957;-79
2022/04/15 03:01:19;;;;;;;16.08;11.18;;;;;;;;;;5001355;28;88893;-79
2022/04/15 03:03:45;;;;;;;16.77;11.70;;;;;;;;;;5020198;28;91391;-77
2022/04/15 03:06:11;;;;;;;13.27;10.73;;;;;;;;;;5000822;28;90067;-79
2022/04/15 03:08:38;;;;;;;13.85;9.88;;;;;;;;;;5001254;28;89602;-78
2022/04/15 03:11:06;;;;;;;13.25;10.00;;;;;;;;;;5019495;28;87931;-80
2022/04/15 03:13:34;;;;;;;12.23;9.27;;;;;;;;;;5017259;28;91758;-78
2022/04/15 03:16:04;;;;;;;17.33;10.57;;;;;;;;;;4951248;28;90939;-78
2022/04/15 03:18:30;;;;;;;16.88;10.20;;;;;;;;;;4984243;28;91571;-78
2022/04/15 03:20:57;;;;;;;12.05;9.60;;;;;;;;;;5018544;28;89088;-81
2022/04/15 03:23:23;;;;;;;14.65;9.18;;;;;;;;;;5001610;28;90106;-81
2022/04/15 03:25:50;;;;;;;13.57;9.05;;;;;;;;;;5005806;28;89174;-81
2022/04/15 03:28:16;;;;;;;15.95;9.35;;;;;;;;;;5001919;28;87888;-80
2022/04/15 03:30:42;;;;;;;17.90;9.88;;;;;;;;;;4987212;28;91309;-80
2022/04/15 03:33:09;;;;;;;13.70;9.65;;;;;;;;;;5005557;28;91211;-80
2022/04/15 03:35:35;;;;;;;18.15;9.70;;;;;;;;;;5022832;28;88369;-83
2022/04/15 03:38:02;;;;;;;13.13;9.95;;;;;;;;;;5022635;28;88853;-79
2022/04/15 03:40:29;;;;;;;16.50;9.30;;;;;;;;;;5004172;28;91735;-82
2022/04/15 03:42:56;;;;;;;12.40;9.02;;;;;;;;;;5005111;28;90571;-77
2022/04/15 03:45:23;;;;;;;12.85;9.23;;;;;;;;;;5004907;28;91715;-79
2022/04/15 03:47:50;;;;;;;15.50;8.80;;;;;;;;;;5007576;28;90341;-79
2022/04/15 03:50:16;;;;;;;14.07;8.27;;;;;;;;;;4988111;28;91017;-77
2022/04/15 03:52:46;;;;;;;12.63;8.55;;;;;;;;;;4984591;28;90411;-79
2022/04/15 03:55:13;;;;;;;11.73;7.70;;;;;;;;;;4985025;28;91148;-78
2022/04/15 03:57:39;;;;;;;11.60;7.88;;;;;;;;;;5001856;28;91231;-78
2022/04/15 04:00:07;;;;;;;8.75;6.90;;;;;;;;;;5001297;28;90281;-78
2022/04/15 04:02:34;;;;;;;8.30;7.30;;;;;;;;;;5001213;28;89448;-80
2022/04/15 04:05:01;;;;;;;8.27;7.10;;;;;;;;;;4984164;28;90305;-80
2022/04/15 04:07:27;;;;;;;11.32;7.63;;;;;;;;;;5001255;28;91888;-82
2022/04/15 04:09:54;;;;;;;10.90;6.95;;;;;;;;;;4987782;28;90995;-85
2022/04/15 04:12:20;;;;;;;9.32;7.45;;;;;;;;;;5018178;28;90883;-80
2022/04/15 04:14:47;;;;;;;17.55;7.85;;;;;;;;;;5001234;28;90450;-79
2022/04/15 04:17:13;;;;;;;12.27;8.35;;;;;;;;;;5001306;28;91502;-84
2022/04/15 04:19:41;;;;;;;15.68;7.65;;;;;;;;;;5001256;28;88784;-81
2022/04/15 04:22:07;;;;;;;9.73;7.65;;;;;;;;;;5018044;28;90111;-81
2022/04/15 04:24:34;;;;;;;10.02;7.82;;;;;;;;;;4984659;28;90887;-80
2022/04/15 04:27:00;;;;;;;12.52;8.88;;;;;;;;;;4984999;28;90914;-81
2022/04/15 04:29:27;;;;;;;14.35;8.70;;;;;;;;;;4984129;28;90470;-81
2022/04/15 04:31:53;;;;;;;9.38;8.48;;;;;;;;;;5020643;28;90346;-79
2022/04/15 04:34:21;;;;;;;10.15;8.13;;;;;;;;;;5000734;28;90544;-80
2022/04/15 04:36:47;;;;;;;11.30;7.93;;;;;;;;;;5017440;28;90224;-80
2022/04/15 04:39:14;;;;;;;10.68;8.75;;;;;;;;;;4983935;28;90921;-81
2022/04/15 04:41:40;;;;;;;15.55;9.77;;;;;;;;;;4999785;28;90142;-79
2022/04/15 04:44:07;;;;;;;10.30;9.20;;;;;;;;;;5000845;28;88604;-82
2022/04/15 04:46:34;;;;;;;13.80;9.50;;;;;;;;;;5000240;28;89287;-80
2022/04/15 04:49:00;;;;;;;12.32;8.93;;;;;;;;;;4984286;28;88071;-80
2022/04/15 04:51:27;;;;;;;10.70;9.43;;;;;;;;;;5003088;28;90951;-80
2022/04/15 04:53:53;;;;;;;13.85;10.20;;;;;;;;;;5015870;28;88958;-79
2022/04/15 04:56:20;;;;;;;10.65;9.48;;;;;;;;;;5002511;28;92529;-80
2022/04/15 04:58:46;;;;;;;13.70;9.63;;;;;;;;;;5021510;28;87887;-77
2022/04/15 05:01:12;;;;;;;10.93;9.80;;;;;;;;;;5020969;28;88868;-76
2022/04/15 05:03:39;;;;;;;12.07;10.20;;;;;;;;;;5020986;28;89924;-77
2022/04/15 05:06:05;;;;;;;11.10;9.80;;;;;;;;;;5020342;28;89490;-74
2022/04/15 05:08:32;;;;;;;12.73;10.52;;;;;;;;;;5021116;28;90376;-77
2022/04/15 05:10:58;;;;;;;14.13;10.35;;;;;;;;;;5018960;28;90864;-76
2022/04/15 05:13:24;;;;;;;13.15;9.32;;;;;;;;;;5023108;28;89184;-77
2022/04/15 05:15:51;;;;;;;11.45;9.82;;;;;;;;;;5020812;28;88949;-75
2022/04/15 05:18:18;;;;;;;12.35;9.98;;;;;;;;;;5020247;28;91002;-75
2022/04/15 05:20:45;;;;;;;11.77;10.07;;;;;;;;;;5019983;28;89554;-75
2022/04/15 05:23:12;;;;;;;11.25;8.98;;;;;;;;;;5019753;28;89860;-76
2022/04/15 05:25:39;;;;;;;11.15;8.27;;;;;;;;;;5020791;28;89227;-76
2022/04/15 05:28:05;;;;;;;14.35;8.65;;;;;;;;;;5020864;28;87898;-74
2022/04/15 05:30:31;;;;;;;11.25;8.50;;;;;;;;;;5020310;28;88280;-77
2022/04/15 05:32:58;;;;;;;11.30;8.15;;;;;;;;;;5020930;28;89178;-75
2022/04/15 05:35:25;;;;;;;14.95;8.48;;;;;;;;;;5024158;28;88053;-76
2022/04/15 05:37:51;;;;;;;9.32;8.30;;;;;;;;;;5020919;28;88796;-76
2022/04/15 05:40:17;;;;;;;12.10;8.93;;;;;;;;;;5020903;28;87918;-78
2022/04/15 05:42:44;;;;;;;9.10;8.20;;;;;;;;;;5002856;28;89467;-77
2022/04/15 05:45:10;;;;;;;15.05;8.40;;;;;;;;;;5020629;28;89086;-77
2022/04/15 05:47:38;;;;;;;11.68;8.85;;;;;;;;;;5020740;28;87912;-79
2022/04/15 05:50:05;;;;;;;10.30;9.32;;;;;;;;;;5020773;28;88698;-78
2022/04/15 05:52:31;;;;;;;9.65;8.82;;;;;;;;;;5019621;28;89651;-77
2022/04/15 05:54:57;;;;;;;15.00;10.00;;;;;;;;;;5019896;28;87641;-78
2022/04/15 05:57:24;;;;;;;14.90;9.38;;;;;;;;;;5022321;28;89899;-77
2022/04/15 05:59:50;;;;;;;9.93;8.70;;;;;;;;;;5020220;28;90321;-77
2022/04/15 06:02:16;;;;;;;9.68;8.52;;;;;;;;;;5020472;28;89370;-79
2022/04/15 06:04:43;;;;;;;11.93;8.30;;;;;;;;;;5020434;28;88510;-77
2022/04/15 06:07:09;;;;;;;10.02;8.35;;;;;;;;;;5019805;28;88621;-78
2022/04/15 06:09:36;;;;;;;10.80;8.30;;;;;;;;;;5020416;28;89004;-77
2022/04/15 06:12:08;;;;;;;8.98;7.30;;;;;;;;;;5019410;28;89587;-77
2022/04/15 06:14:36;;;;;;;10.27;6.60;;;;;;;;;;5020045;28;88070;-76
2022/04/15 06:17:03;;;;;;;8.18;6.38;;;;;;;;;;5002265;28;87954;-78
2022/04/15 06:19:29;;;;;;;6.43;5.90;;;;;;;;;;5023018;28;89004;-76
2022/04/15 06:22:01;;;;;;;9.07;5.82;;;;;;;;;;5018024;28;88493;-75
2022/04/15 06:24:27;;;;;;;6.45;5.70;;;;;;;;;;5017423;28;87707;-75
2022/04/15 06:26:54;;;;;;;8.00;5.15;;;;;;;;;;5019537;28;88078;-75
2022/04/15 06:29:20;;;;;;;7.38;5.28;;;;;;;;;;5002314;28;89589;-75
2022/04/15 06:31:47;;;;;;;8.20;4.60;;;;;;;;;;5018874;28;91272;-74
2022/04/15 06:34:14;;;;;;;8.82;4.72;;;;;;;;;;5019665;28;88539;-75
2022/04/15 06:36:40;;;;;;;7.30;4.90;;;;;;;;;;5019784;28;88754;-75
2022/04/15 06:39:07;;;;;;;9.60;4.80;;;;;;;;;;5019778;28;89304;-71
2022/04/15 06:41:34;;;;;;;5.38;4.90;;;;;;;;;;5022519;28;87935;-75
2022/04/15 06:44:00;;;;;;;5.32;4.82;;;;;;;;;;5002012;28;89868;-77
2022/04/15 06:46:28;;;;;;;5.35;4.70;;;;;;;;;;5019887;28;87788;-76
2022/04/15 06:48:55;;;;;;;7.57;5.13;;;;;;;;;;5020457;28;87173;-74
2022/04/15 06:51:27;;;;;;;5.25;4.82;;;;;;;;;;5019715;28;88764;-77
2022/04/15 06:53:54;;;;;;;7.57;5.45;;;;;;;;;;5018872;28;88683;-76
2022/04/15 06:56:20;;;;;;;15.73;5.43;;;;;;;;;;5019163;28;88992;-75
2022/04/15 06:58:48;;;;;;;7.88;4.90;;;;;;;;;;5001680;28;89368;-76
2022/04/15 07:01:15;;;;;;;4.78;4.38;;;;;;;;;;5022824;28;87835;-77
2022/04/15 07:03:42;;;;;;;4.90;4.40;;;;;;;;;;5019549;28;87729;-76
2022/04/15 07:06:08;;;;;;;5.07;4.63;;;;;;;;;;5019118;28;88443;-78
2022/04/15 07:08:34;;;;;;;8.52;4.35;;;;;;;;;;5001016;28;88486;-75
2022/04/15 07:11:02;;;;;;;5.13;4.70;;;;;;;;;;5019080;28;90048;-78
2022/04/15 07:13:35;;;;;;;6.35;5.00;;;;;;;;;;5018318;28;87462;-72
2022/04/15 07:16:02;;;;;;;6.20;4.60;;;;;;;;;;5019386;28;88256;-77
2022/04/15 07:18:28;;;;;;;8.43;4.82;;;;;;;;;;5001717;28;89229;-76
2022/04/15 07:20:54;;;;;;;9.02;5.25;;;;;;;;;;5018755;28;88477;-79
2022/04/15 07:23:21;;;;;;;5.47;5.07;;;;;;;;;;5022449;28;88964;-76
2022/04/15 07:25:47;;;;;;;7.55;4.30;;;;;;;;;;5019260;28;87823;-78
2022/04/15 07:28:13;;;;;;;4.40;4.00;;;;;;;;;;5018471;28;89089;-80
2022/04/15 07:30:40;;;;;;;5.50;3.95;;;;;;;;;;5019264;28;89277;-79
2022/04/15 07:33:06;;;;;;;5.20;3.28;;;;;;;;;;5019136;28;88056;-78
2022/04/15 07:35:34;;;;;;;5.65;3.92;;;;;;;;;;5017717;28;91917;-75
2022/04/15 07:38:00;;;;;;;4.43;4.03;;;;;;;;;;5019468;28;87924;-76
2022/04/15 07:40:29;;;;;;;5.47;3.95;;;;;;;;;;5014328;28;88015;-80
2022/04/15 07:42:57;;;;;;;8.43;4.10;;;;;;;;;;4985262;28;90240;-78
2022/04/15 07:45:26;;;;;;;4.82;3.67;;;;;;;;;;5005301;28;90868;-77
2022/04/15 07:47:53;;;;;;;4.15;3.78;;;;;;;;;;5013767;28;88276;-77
2022/04/15 07:50:22;;;;;;;7.15;4.00;;;;;;;;;;5005264;28;90183;-79
2022/04/15 07:52:48;;;;;;;4.88;4.00;;;;;;;;;;4985154;28;92587;-76
2022/04/15 07:55:15;;;;;;;5.53;4.15;;;;;;;;;;5006339;28;89409;-76
2022/04/15 07:57:41;;;;;;;5.30;4.55;;;;;;;;;;5007895;28;91439;-79
2022/04/15 08:00:08;;;;;;;5.18;3.80;;;;;;;;;;4990016;28;90355;-80
2022/04/15 08:02:37;;;;;;;4.78;3.88;;;;;;;;;;5006080;28;88855;-76
2022/04/15 08:05:04;;;;;;;8.07;3.85;;;;;;;;;;5008721;28;88450;-78
2022/04/15 08:07:30;;;;;;;7.82;4.30;;;;;;;;;;5010359;28;88332;-79
2022/04/15 08:09:57;;;;;;;4.60;4.18;;;;;;;;;;5009484;28;90071;-79
2022/04/15 08:12:23;;;;;;;5.05;4.30;;;;;;;;;;4998606;28;89059;-77
2022/04/15 08:14:49;;;;;;;4.20;3.90;;;;;;;;;;4979651;28;90282;-79
2022/04/15 08:17:16;;;;;;;4.10;3.80;;;;;;;;;;5010831;28;90467;-79
2022/04/15 08:19:42;;;;;;;4.80;3.67;;;;;;;;;;5011597;28;87885;-79
2022/04/15 08:22:09;;;;;;;4.20;3.90;;;;;;;;;;5006027;28;88459;-81
2022/04/15 08:24:45;;;;;;;4.20;3.75;;;;;;;;;;5009931;28;88684;-76
2022/04/15 08:27:11;;;;;;;6.93;3.83;;;;;;;;;;5011196;28;87713;-79
2022/04/15 08:29:42;;;;;;;3.80;3.50;;;;;;;;;;4989365;28;88769;-79
2022/04/15 08:32:08;;;;;;;7.95;4.68;;;;;;;;;;4984785;28;88659;-78
2022/04/15 08:34:36;;;;;;;4.30;3.90;;;;;;;;;;5008938;28;89433;-77
2022/04/15 08:37:02;;;;;;;4.00;3.60;;;;;;;;;;5005503;28;89248;-77
2022/04/15 08:39:30;;;;;;;5.82;3.60;;;;;;;;;;5009841;28;87825;-76
2022/04/15 08:41:57;;;;;;;5.70;3.88;;;;;;;;;;5009386;28;88584;-78
2022/04/15 08:44:24;;;;;;;4.45;3.65;;;;;;;;;;5009381;28;89281;-77
2022/04/15 08:46:51;;;;;;;3.80;3.50;;;;;;;;;;5011259;28;87835;-77
2022/04/15 08:49:19;;;;;;;3.58;3.38;;;;;;;;;;5007818;28;88973;-78
2022/04/15 08:51:47;;;;;;;3.80;3.50;;;;;;;;;;5016359;28;88422;-78
2022/04/15 08:54:14;;;;;;;3.90;3.50;;;;;;;;;;4978780;28;88074;-73
2022/04/15 08:56:40;;;;;;;6.20;3.78;;;;;;;;;;4992787;28;88964;-73
2022/04/15 08:59:07;;;;;;;3.88;3.55;;;;;;;;;;4983855;28;90154;-80
2022/04/15 09:01:33;;;;;;;4.90;4.07;;;;;;;;;;4992808;28;89416;-78
2022/04/15 09:04:00;;;;;;;4.38;3.65;;;;;;;;;;4994542;28;88609;-79
2022/04/15 09:06:31;;;;;;;4.60;3.58;;;;;;;;;;4990964;28;87926;-80
2022/04/15 09:08:58;;;;;;;5.93;4.32;;;;;;;;;;4988336;28;89671;-77
2022/04/15 09:11:34;;;;;;;4.22;3.80;;;;;;;;;;4994855;28;88612;-77
2022/04/15 09:14:10;;;;;;;4.63;3.58;;;;;;;;;;4991123;28;88586;-78
2022/04/15 09:16:41;;;;;;;5.20;3.85;;;;;;;;;;4990229;28;88041;-74
2022/04/15 09:19:08;;;;;;;4.07;3.67;;;;;;;;;;4991514;28;88042;-78
2022/04/15 09:21:35;;;;;;;4.38;3.65;;;;;;;;;;4989977;28;89474;-77
2022/04/15 09:24:02;;;;;;;5.43;3.90;;;;;;;;;;4987924;28;88795;-75
2022/04/15 09:26:28;;;;;;;4.70;4.13;;;;;;;;;;4989678;28;88147;-77
2022/04/15 09:28:55;;;;;;;8.73;4.20;;;;;;;;;;4991044;28;88981;-76
2022/04/15 09:31:22;;;;;;;4.85;4.20;;;;;;;;;;4988800;28;89129;-77
2022/04/15 09:33:58;;;;;;;4.85;3.58;;;;;;;;;;4989239;28;88413;-80
2022/04/15 09:36:32;;;;;;;5.28;4.05;;;;;;;;;;4985292;28;89668;-77
2022/04/15 09:39:01;;;;;;;5.22;4.32;;;;;;;;;;4986620;28;89208;-75
2022/04/15 09:41:29;;;;;;;4.78;4.22;;;;;;;;;;4991889;28;88480;-76
2022/04/15 09:43:57;;;;;;;12.02;4.50;;;;;;;;;;4988414;28;89043;-78
2022/04/15 09:46:26;;;;;;;5.88;4.72;;;;;;;;;;4990466;28;91018;-76
2022/04/15 09:49:06;;;;;;;4.82;4.43;;;;;;;;;;4987144;28;90313;-79
2022/04/15 09:51:44;;;;;;;5.35;4.63;;;;;;;;;;4986397;28;88853;-78
2022/04/15 09:54:19;;;;;;;6.50;5.40;;;;;;;;;;5006905;28;87873;-77
2022/04/15 09:56:46;;;;;;;5.57;4.85;;;;;;;;;;5018518;28;88742;-77
2022/04/15 09:59:15;;;;;;;5.88;4.88;;;;;;;;;;5009667;28;89143;-76
2022/04/15 10:01:46;;;;;;;5.53;5.05;;;;;;;;;;5008489;28;89754;-74
2022/04/15 10:04:14;;;;;;;6.43;5.30;;;;;;;;;;5009818;28;88671;-76
2022/04/15 10:06:41;;;;;;;5.50;5.07;;;;;;;;;;5010715;28;87917;-74
2022/04/15 10:09:11;;;;;;;7.13;5.38;;;;;;;;;;5012902;28;87880;-76
2022/04/15 10:11:41;;;;;;;7.65;5.72;;;;;;;;;;5010886;28;89019;-78
2022/04/15 10:14:09;;;;;;;5.38;4.88;;;;;;;;;;5004632;28;88751;-75
2022/04/15 10:16:36;;;;;;;6.18;5.40;;;;;;;;;;5011288;28;89712;-76
2022/04/15 10:19:03;;;;;;;5.43;4.93;;;;;;;;;;5006925;28;89390;-76
2022/04/15 10:21:37;;;;;;;5.10;4.60;;;;;;;;;;5010910;28;89008;-75
2022/04/15 10:24:04;;;;;;;5.43;4.95;;;;;;;;;;5003894;28;89888;-77
2022/04/15 10:26:41;;;;;;;8.70;5.18;;;;;;;;;;4984802;28;88140;-79
2022/04/15 10:29:09;;;;;;;5.43;4.85;;;;;;;;;;4990774;28;87912;-80
2022/04/15 10:31:38;;;;;;;5.78;5.05;;;;;;;;;;5007071;28;89229;-80
2022/04/15 10:34:09;;;;;;;5.55;5.00;;;;;;;;;;5008853;28;88218;-81
2022/04/15 10:36:35;;;;;;;5.20;4.70;;;;;;;;;;5007715;28;89203;-81
2022/04/15 10:39:02;;;;;;;7.80;4.72;;;;;;;;;;5008156;28;89724;-82
2022/04/15 10:41:50;;;;;;;5.28;4.82;;;;;;;;;;4990073;28;91305;-81
2022/04/15 10:44:27;;;;;;;5.13;4.63;;;;;;;;;;5006069;28;91417;-76
2022/04/15 10:47:03;;;;;;;6.72;4.80;;;;;;;;;;4971267;28;88732;-81
2022/04/15 10:49:30;;;;;;;5.18;4.78;;;;;;;;;;5006795;28;88574;-79
2022/04/15 10:51:58;;;;;;;5.28;4.70;;;;;;;;;;5007588;28;90826;-80
2022/04/15 10:54:28;;;;;;;5.85;4.93;;;;;;;;;;5009792;28;88149;-77
2022/04/15 10:56:58;;;;;;;5.70;5.05;;;;;;;;;;5008430;28;87278;-81
2022/04/15 11:02:21;;;;;;;5.72;5.20;;;;;;;;;;4999994;28;89163;-78
2022/04/15 11:04:51;;;;;;;5.43;4.90;;;;;;;;;;5009719;28;88735;-81
2022/04/15 11:07:26;;;;;;;5.53;4.80;;;;;;;;;;5007469;28;87991;-79
2022/04/15 11:09:52;;;;;;;6.20;5.25;;;;;;;;;;5003757;28;87881;-80
2022/04/15 11:12:29;;;;;;;5.57;5.07;;;;;;;;;;5009600;28;88724;-80
2022/04/15 11:14:55;;;;;;;5.47;4.97;;;;;;;;;;5003662;28;89653;-79
2022/04/15 11:17:44;;;;;;;5.97;4.88;;;;;;;;;;5010147;28;90243;-79
2022/04/15 11:20:10;;;;;;;5.63;4.80;;;;;;;;;;5005036;28;89475;-80
2022/04/15 11:22:41;;;;;;;5.63;5.07;;;;;;;;;;5007360;28;87853;-81
2022/04/15 11:25:09;;;;;;;5.78;4.90;;;;;;;;;;4984643;28;88769;-79
2022/04/15 11:27:38;;;;;;;5.97;5.47;;;;;;;;;;5004848;28;90067;-79
2022/04/15 11:30:15;;;;;;;5.82;5.32;;;;;;;;;;5005798;28;88812;-78
2022/04/15 11:32:48;;;;;;;6.20;5.60;;;;;;;;;;5006147;28;88521;-80
2022/04/15 11:35:34;;;;;;;6.50;5.90;;;;;;;;;;4990720;28;90963;-78
2022/04/15 11:38:12;;;;;;;6.00;5.50;;;;;;;;;;5003019;28;89071;-79
2022/04/15 11:40:43;;;;;;;6.03;5.43;;;;;;;;;;5004255;28;90822;-80
2022/04/15 11:43:10;;;;;;;6.32;5.72;;;;;;;;;;5001694;28;89267;-80
2022/04/15 11:45:40;;;;;;;6.32;5.85;;;;;;;;;;5006460;28;89297;-78
2022/04/15 11:48:19;;;;;;;7.03;6.28;;;;;;;;;;4992682;28;91010;-79
2022/04/15 11:50:46;;;;;;;6.30;5.70;;;;;;;;;;5006075;28;87877;-78
2022/04/15 11:53:16;;;;;;;7.53;6.35;;;;;;;;;;5012425;28;88420;-79
2022/04/15 11:55:50;;;;;;;6.43;5.93;;;;;;;;;;4995211;28;90857;-77
2022/04/15 11:58:17;;;;;;;6.88;6.35;;;;;;;;;;5011680;28;89113;-80
2022/04/15 12:00:49;;;;;;;8.57;6.90;;;;;;;;;;5011975;28;87852;-79
2022/04/15 12:03:16;;;;;;;7.15;6.45;;;;;;;;;;5015710;28;88473;-78
2022/04/15 12:05:42;;;;;;;7.38;6.70;;;;;;;;;;5015750;28;89894;-78
2022/04/15 12:08:08;;;;;;;6.93;6.30;;;;;;;;;;4987971;28;90268;-77
2022/04/15 12:10:39;;;;;;;9.05;6.85;;;;;;;;;;5013824;28;88007;-79
2022/04/15 12:13:06;;;;;;;9.45;7.10;;;;;;;;;;4978300;28;87678;-79
2022/04/15 12:15:34;;;;;;;8.93;7.97;;;;;;;;;;5010883;28;87844;-78
2022/04/15 12:18:04;;;;;;;8.30;7.57;;;;;;;;;;5010284;28;88159;-79
2022/04/15 12:20:35;;;;;;;13.93;7.82;;;;;;;;;;5011209;28;89637;-77
2022/04/15 12:23:02;;;;;;;12.10;8.25;;;;;;;;;;5006307;28;88252;-79
2022/04/15 12:26:05;;;;;;;9.45;8.43;;;;;;;;;;4988435;28;89060;-79
2022/04/15 12:31:23;;;;;;;8.48;7.70;;;;;;;;;;5000084;28;88101;-78
2022/04/15 12:33:55;;;;;;;10.90;8.55;;;;;;;;;;5001504;28;89846;-77
2022/04/15 12:36:21;;;;;;;10.25;9.18;;;;;;;;;;4988159;28;87927;-78
2022/04/15 12:39:01;;;;;;;13.05;9.50;;;;;;;;;;4981267;28;88977;-79
2022/04/15 12:41:45;;;;;;;12.13;9.98;;;;;;;;;;4985250;28;88910;-78
2022/04/15 12:44:14;;;;;;;13.70;9.93;;;;;;;;;;4986999;28;89105;-81
2022/04/15 12:46:43;;;;;;;11.60;9.90;;;;;;;;;;4987402;28;88915;-79
2022/04/15 12:49:22;;;;;;;13.40;10.90;;;;;;;;;;4989566;28;89595;-78
2022/04/15 12:51:49;;;;;;;11.80;10.45;;;;;;;;;;4988740;28;88934;-78
2022/04/15 12:54:16;;;;;;;14.48;11.50;;;;;;;;;;4968754;28;90153;-82
2022/04/15 12:56:52;;;;;;;14.27;11.38;;;;;;;;;;4987775;28;89901;-77
2022/04/15 12:59:18;;;;;;;18.02;13.15;;;;;;;;;;4971234;28;89925;-79
2022/04/15 13:01:45;;;;;;;19.92;12.57;;;;;;;;;;4971102;28;89258;-79
2022/04/15 13:04:13;;;;;;;16.70;12.73;;;;;;;;;;4967297;28;89673;-80
2022/04/15 13:06:40;;;;;;;14.48;12.68;;;;;;;;;;4962843;28;90162;-82
2022/04/15 13:09:06;;;;;;;16.75;13.40;;;;;;;;;;4972140;28;89195;-81
2022/04/15 13:11:33;;;;;;;14.43;12.85;;;;;;;;;;4971361;28;89841;-76
2022/04/15 13:13:59;;;;;;;15.60;13.23;;;;;;;;;;4968225;28;90000;-80
2022/04/15 13:16:25;;;;;;;16.90;13.05;;;;;;;;;;4967692;28;89017;-78
2022/04/15 13:18:54;;;;;;;17.85;13.32;;;;;;;;;;4987614;28;88962;-83
2022/04/15 13:21:21;;;;;;;19.17;12.60;;;;;;;;;;4970396;28;89168;-80
2022/04/15 13:23:47;;;;;;;16.65;14.05;;;;;;;;;;4970977;28;89660;-83
2022/04/15 13:26:14;;;;;;;19.55;13.90;;;;;;;;;;4966271;28;89108;-83
2022/04/15 13:28:41;;;;;;;16.67;13.32;;;;;;;;;;4969132;28;89118;-81
2022/04/15 13:31:11;;;;;;;17.00;12.90;;;;;;;;;;4967690;28;90751;-78
2022/04/15 13:33:38;;;;;;;15.35;12.82;;;;;;;;;;4965198;28;89765;-80
2022/04/15 13:36:04;;;;;;;14.82;12.52;;;;;;;;;;4968283;28;89938;-77
2022/04/15 13:38:30;;;;;;;14.63;11.75;;;;;;;;;;4973757;28;89640;-82
2022/04/15 13:40:57;;;;;;;14.20;12.40;;;;;;;;;;4969520;28;89090;-80
2022/04/15 13:43:23;;;;;;;14.50;12.02;;;;;;;;;;4966724;28;90232;-80
2022/04/15 13:45:49;;;;;;;14.40;12.32;;;;;;;;;;4968545;28;90418;-82
2022/04/15 13:48:16;;;;;;;13.63;11.85;;;;;;;;;;4970584;28;89856;-78
2022/04/15 13:50:42;;;;;;;13.15;11.70;;;;;;;;;;4966448;28;92535;-78
2022/04/15 13:58:39;;;;;;;11.70;10.55;;;;;;;;;;4986567;28;90538;-79
2022/04/15 14:01:23;;;;;;;11.88;10.70;;;;;;;;;;4990575;28;89685;-80
2022/04/15 14:03:50;;;;;;;11.93;10.40;;;;;;;;;;4982966;28;91652;-77
2022/04/15 14:06:17;;;;;;;12.80;11.13;;;;;;;;;;4996266;28;89076;-80
2022/04/15 14:08:44;;;;;;;11.07;10.07;;;;;;;;;;4996827;28;88853;-76
2022/04/15 14:11:12;;;;;;;15.07;10.25;;;;;;;;;;4991593;28;91063;-81
2022/04/15 14:13:39;;;;;;;14.65;9.90;;;;;;;;;;4986607;28;90231;-78
2022/04/15 14:16:07;;;;;;;9.88;8.65;;;;;;;;;;4988790;28;89599;-80
2022/04/15 14:18:34;;;;;;;17.75;9.63;;;;;;;;;;4988645;28;87009;-76
2022/04/15 14:21:00;;;;;;;20.23;9.63;;;;;;;;;;4989269;28;87911;-78
2022/04/15 14:23:27;;;;;;;13.35;9.20;;;;;;;;;;4994139;28;88558;-78
2022/04/15 14:25:54;;;;;;;10.35;8.55;;;;;;;;;;4978151;28;90103;-78
2022/04/15 14:28:21;;;;;;;10.60;9.20;;;;;;;;;;4984430;28;89038;-78
2022/04/15 14:30:47;;;;;;;9.77;8.82;;;;;;;;;;4989091;28;88876;-78
2022/04/15 14:33:13;;;;;;;10.27;8.35;;;;;;;;;;4985366;28;89216;-77
2022/04/15 14:35:41;;;;;;;8.80;7.80;;;;;;;;;;4989330;28;88004;-77
2022/04/15 14:38:08;;;;;;;9.57;8.68;;;;;;;;;;5002764;28;88104;-79
2022/04/15 14:40:34;;;;;;;9.18;8.27;;;;;;;;;;4990484;28;89100;-77
2022/04/15 14:43:00;;;;;;;8.82;7.95;;;;;;;;;;4987919;28;88856;-78
2022/04/15 14:45:28;;;;;;;8.60;7.90;;;;;;;;;;4993685;28;88632;-78
2022/04/15 14:47:54;;;;;;;8.90;8.10;;;;;;;;;;4991243;28;88413;-79